Time;durP1;ratioP1;P1;durP2;ratioP2;P2;SDS_P1;SDS_P2;PMS_P1;PMS_P2;Temp;Humidity;BMP_temperature;BMP_pressure;BME280_temperature;BME280_humidity;BME280_pressure;Samples;Min_cycle;Max_cycle;Signal;HPM_P1;HPM_P2
2023/03/23 07:33:36;;;;;;;328.90;239.45;;;;;;;19.89;54.58;100167.88;4969730;27;3986098;-47
2023/03/23 07:36:05;;;;;;;329.58;237.10;;;;;;;20.84;51.91;100171.97;5088975;28;20439;-47
2023/03/23 07:38:33;;;;;;;319.67;236.65;;;;;;;21.68;49.53;100173.00;5089499;28;20112;-46
2023/03/23 07:41:02;;;;;;;316.95;223.50;;;;;;;22.22;48.30;100180.44;5090280;28;20039;-48
2023/03/23 07:43:31;;;;;;;320.65;232.23;;;;;;;22.58;47.00;100176.38;5089057;28;20028;-48
2023/03/23 07:46:00;;;;;;;303.05;224.80;;;;;;;22.82;46.35;100183.50;5090331;28;20389;-49
2023/03/23 07:48:29;;;;;;;305.45;223.60;;;;;;;22.97;45.70;100166.13;5090134;28;20033;-51
2023/03/23 07:50:57;;;;;;;305.48;220.35;;;;;;;23.09;45.71;100176.63;5089911;28;20037;-48
2023/03/23 07:53:26;;;;;;;298.33;219.57;;;;;;;23.17;45.07;100180.13;5088986;28;20539;-49
2023/03/23 07:55:55;;;;;;;303.00;220.73;;;;;;;23.33;44.77;100177.63;5090140;28;20426;-51
2023/03/23 07:58:24;;;;;;;289.85;213.02;;;;;;;23.29;44.80;100181.97;5090105;28;20024;-50
2023/03/23 08:00:56;;;;;;;294.83;216.63;;;;;;;23.30;44.91;100181.09;5090092;28;20377;-47
2023/03/23 08:03:26;;;;;;;283.63;204.95;;;;;;;23.49;44.38;100182.03;5090104;28;20032;-50
2023/03/23 08:05:54;;;;;;;293.17;204.60;;;;;;;23.52;44.08;100175.94;5090023;28;20393;-48
2023/03/23 08:08:23;;;;;;;285.63;206.95;;;;;;;23.38;44.71;100175.88;5089555;28;20119;-50
2023/03/23 08:10:51;;;;;;;298.10;213.60;;;;;;;23.38;44.92;100180.25;5090823;28;20034;-49
2023/03/23 08:13:20;;;;;;;280.80;209.07;;;;;;;23.45;44.32;100175.06;5089755;28;20036;-48
2023/03/23 08:15:49;;;;;;;299.88;211.25;;;;;;;23.43;44.25;100174.16;5089943;28;20032;-48
2023/03/23 08:18:18;;;;;;;293.98;207.95;;;;;;;23.40;44.48;100175.91;5089864;28;20470;-47
2023/03/23 08:20:46;;;;;;;279.00;199.20;;;;;;;23.48;44.25;100174.16;5089580;28;20077;-46
2023/03/23 08:23:15;;;;;;;297.38;210.98;;;;;;;23.39;44.81;100164.56;5089838;28;20051;-51
2023/03/23 08:25:44;;;;;;;282.20;201.93;;;;;;;23.43;44.42;100160.19;5089761;28;20021;-49
2023/03/23 08:28:13;;;;;;;281.35;203.63;;;;;;;23.48;44.19;100169.81;5089814;28;20444;-49
2023/03/23 08:30:42;;;;;;;276.25;200.27;;;;;;;23.41;44.22;100175.03;5089545;28;20067;-48
2023/03/23 08:33:11;;;;;;;282.80;204.40;;;;;;;23.37;44.38;100184.59;5089196;28;20076;-52
2023/03/23 08:35:40;;;;;;;285.40;207.55;;;;;;;23.38;44.34;100177.66;5089293;28;20036;-49
2023/03/23 08:38:09;;;;;;;283.17;203.55;;;;;;;23.36;44.36;100182.84;5089227;28;20085;-48
2023/03/23 08:40:37;;;;;;;281.52;206.30;;;;;;;23.39;44.32;100182.00;5089364;28;20047;-46
2023/03/23 08:43:06;;;;;;;300.42;217.32;;;;;;;23.39;44.87;100177.63;5085966;28;20393;-48
2023/03/23 08:45:35;;;;;;;297.50;211.32;;;;;;;23.22;45.07;100156.66;5075731;28;20111;-47
2023/03/23 08:48:03;;;;;;;290.85;209.35;;;;;;;23.35;44.44;100171.53;5075917;28;20028;-48
2023/03/23 08:50:31;;;;;;;299.02;213.35;;;;;;;23.31;44.70;100171.53;5075599;28;20025;-47
2023/03/23 08:52:59;;;;;;;292.00;213.00;;;;;;;23.42;44.73;100174.13;5075197;28;20089;-48
2023/03/23 08:55:29;;;;;;;286.75;210.02;;;;;;;23.45;44.48;100180.28;5074364;28;20052;-47
2023/03/23 08:57:57;;;;;;;289.08;212.00;;;;;;;23.41;44.70;100173.28;5075791;28;20062;-48
2023/03/23 09:00:27;;;;;;;280.63;206.73;;;;;;;23.37;44.72;100179.38;5075354;28;20028;-47
2023/03/23 09:02:56;;;;;;;290.30;215.15;;;;;;;23.37;44.81;100187.22;5075239;28;20396;-47
2023/03/23 09:05:26;;;;;;;286.40;209.70;;;;;;;23.42;44.71;100192.47;5075539;28;20029;-46
2023/03/23 09:07:58;;;;;;;295.50;216.45;;;;;;;23.38;44.54;100181.13;5075441;28;20028;-47
2023/03/23 09:10:30;;;;;;;285.05;208.20;;;;;;;23.42;44.76;100188.13;5075340;28;20032;-45
2023/03/23 09:12:58;;;;;;;287.27;210.98;;;;;;;23.48;44.22;100198.63;5075384;28;20032;-45
2023/03/23 09:15:27;;;;;;;285.90;206.98;;;;;;;23.43;44.67;100188.97;5075057;28;20416;-47
2023/03/23 09:17:57;;;;;;;283.88;210.02;;;;;;;23.42;44.64;100193.34;5073959;28;20071;-45
2023/03/23 09:20:27;;;;;;;285.25;205.75;;;;;;;23.35;44.57;100184.63;5075151;28;20107;-48
2023/03/23 09:22:57;;;;;;;284.75;208.88;;;;;;;23.38;44.50;100191.59;5075015;28;20036;-45
2023/03/23 09:25:26;;;;;;;286.30;205.30;;;;;;;23.31;44.76;100195.94;5074720;28;20103;-47
2023/03/23 09:27:57;;;;;;;285.48;205.07;;;;;;;23.31;44.76;100224.72;5074665;28;20028;-47
2023/03/23 09:30:28;;;;;;;285.23;202.93;;;;;;;23.38;44.63;100232.59;5075027;28;20029;-46
2023/03/23 09:32:57;;;;;;;277.52;201.40;;;;;;;23.44;44.42;100230.88;5074681;28;20076;-48
2023/03/23 09:35:27;;;;;;;279.00;199.40;;;;;;;23.50;44.27;100235.25;5074620;28;20107;-46
2023/03/23 09:38:00;;;;;;;288.58;209.60;;;;;;;23.43;44.65;100229.13;5075151;28;20032;-47
2023/03/23 09:40:59;;;;;;;275.02;202.60;;;;;;;23.42;44.42;100235.25;5074728;28;20420;-47
2023/03/23 09:44:06;;;;;;;277.30;202.00;;;;;;;23.39;44.38;100236.97;5073734;28;20029;-46
2023/03/23 09:46:56;;;;;;;273.75;202.60;;;;;;;23.39;44.48;100232.59;5070627;28;20043;-48
2023/03/23 09:49:39;;;;;;;295.88;214.07;;;;;;;23.39;44.73;100229.13;5074777;28;20040;-48
2023/03/23 09:52:13;;;;;;;286.73;207.20;;;;;;;23.41;44.82;100220.41;5073473;28;20020;-46
2023/03/23 09:54:44;;;;;;;293.25;209.27;;;;;;;23.42;44.14;100213.41;5072434;28;20036;-47
2023/03/23 09:57:37;;;;;;;288.92;211.48;;;;;;;23.44;44.35;100230.88;5056328;28;20489;-48
2023/03/23 10:00:14;;;;;;;282.35;207.85;;;;;;;23.33;44.67;100223.00;5067182;28;20062;-46
2023/03/23 10:02:50;;;;;;;279.00;207.30;;;;;;;23.37;44.66;100221.25;5074510;28;20107;-46
2023/03/23 10:05:30;;;;;;;280.33;205.98;;;;;;;23.43;44.20;100217.78;5072928;28;20073;-46
2023/03/23 10:07:57;;;;;;;292.10;210.27;;;;;;;23.51;44.10;100226.53;5070631;28;20091;-47
2023/03/23 10:10:32;;;;;;;284.40;207.57;;;;;;;23.45;44.19;100210.81;5072142;28;20072;-48
2023/03/23 10:13:09;;;;;;;288.30;209.13;;;;;;;23.45;44.58;100216.03;5072039;28;20056;-49
2023/03/23 10:15:40;;;;;;;283.63;212.38;;;;;;;23.48;44.29;100206.47;5071302;28;20048;-47
2023/03/23 10:18:30;;;;;;;279.77;203.15;;;;;;;23.55;44.38;100198.63;5071885;28;20036;-50
2023/03/23 10:20:59;;;;;;;276.92;205.23;;;;;;;23.45;44.21;100192.47;5067379;28;20036;-48
2023/03/23 10:23:51;;;;;;;289.92;211.93;;;;;;;23.42;44.20;100195.97;5073125;28;20040;-51
2023/03/23 10:26:45;;;;;;;352.70;270.60;;;;;;;23.42;44.50;100182.00;5067485;28;20119;-48
2023/03/23 10:29:18;;;;;;;343.17;255.80;;;;;;;23.52;44.24;100189.03;5065635;28;20028;-51
2023/03/23 10:31:52;;;;;;;330.08;250.30;;;;;;;23.61;44.03;100185.56;5072348;28;20049;-49
2023/03/23 10:34:36;;;;;;;327.70;245.18;;;;;;;23.56;44.36;100177.69;5073376;28;20021;-51
2023/03/23 10:37:15;;;;;;;310.95;231.15;;;;;;;23.61;44.19;100172.47;5073091;28;20020;-45
2023/03/23 10:39:55;;;;;;;309.17;228.00;;;;;;;23.60;44.29;100182.03;5071925;28;20025;-46
2023/03/23 10:42:43;;;;;;;297.63;219.98;;;;;;;23.62;44.11;100171.59;5072355;28;20024;-46
2023/03/23 10:45:26;;;;;;;291.88;213.88;;;;;;;23.64;44.11;100183.81;5073123;28;20028;-48
2023/03/23 10:48:02;;;;;;;277.67;209.75;;;;;;;23.62;44.06;100192.53;5073330;28;20040;-45
2023/03/23 10:50:33;;;;;;;282.88;205.95;;;;;;;23.65;44.06;100192.56;5073360;28;20021;-47
2023/03/23 10:53:04;;;;;;;279.95;203.63;;;;;;;23.64;44.11;100180.34;5073451;28;20029;-51
2023/03/23 10:55:39;;;;;;;276.00;201.27;;;;;;;23.74;44.06;100176.00;5073316;28;20025;-48
2023/03/23 10:58:10;;;;;;;259.00;196.40;;;;;;;23.79;43.52;100188.22;5072198;28;20028;-46
2023/03/23 11:00:46;;;;;;;271.58;197.23;;;;;;;23.77;44.07;100178.59;5071977;28;20112;-45
2023/03/23 11:03:15;;;;;;;271.15;194.88;;;;;;;23.86;43.95;100182.97;5073247;28;20039;-45
2023/03/23 11:05:53;;;;;;;261.10;190.02;;;;;;;23.89;43.65;100175.13;5073291;28;20021;-46
2023/03/23 11:08:23;;;;;;;258.80;188.63;;;;;;;23.94;43.65;100166.38;5071454;28;20104;-46
2023/03/23 11:10:54;;;;;;;263.60;186.32;;;;;;;23.99;43.50;100162.94;5071263;28;20024;-48
2023/03/23 11:13:25;;;;;;;249.23;179.00;;;;;;;24.05;43.36;100162.94;5072564;28;20078;-49
2023/03/23 11:15:53;;;;;;;243.32;173.90;;;;;;;24.10;43.49;100159.44;5071626;28;20025;-49
2023/03/23 11:18:23;;;;;;;235.32;169.23;;;;;;;24.17;43.22;100169.91;5071621;28;20444;-50
2023/03/23 11:20:56;;;;;;;218.90;159.13;;;;;;;24.16;43.27;100170.81;5072778;28;20017;-50
2023/03/23 11:23:29;;;;;;;228.68;158.18;;;;;;;24.16;43.15;100165.56;5072573;28;20029;-50
2023/03/23 11:26:16;;;;;;;218.85;157.57;;;;;;;24.18;43.19;100161.16;5072892;28;20108;-50
2023/03/23 11:28:59;;;;;;;229.20;162.30;;;;;;;24.19;43.04;100153.31;5064559;28;20127;-50
2023/03/23 11:31:40;;;;;;;234.02;163.82;;;;;;;24.29;43.27;100154.19;5073004;28;20031;-50
2023/03/23 11:34:19;;;;;;;220.98;155.25;;;;;;;24.34;43.07;100159.41;5068570;28;20417;-51
2023/03/23 11:37:08;;;;;;;229.55;162.50;;;;;;;24.44;42.94;100158.53;5072036;28;20107;-49
2023/03/23 11:39:49;;;;;;;237.18;165.40;;;;;;;24.54;43.00;100148.88;5068664;28;20536;-49
2023/03/23 11:42:28;;;;;;;233.65;160.77;;;;;;;24.65;42.50;100156.72;5071810;28;20366;-46
2023/03/23 11:45:05;;;;;;;224.77;157.82;;;;;;;24.68;42.67;100149.72;5071551;28;20120;-49
2023/03/23 11:47:44;;;;;;;225.75;161.23;;;;;;;24.62;43.15;100147.13;5067030;28;20468;-51
2023/03/23 11:50:18;;;;;;;221.45;157.93;;;;;;;24.70;42.62;100150.63;5068266;28;20025;-46
2023/03/23 11:53:24;;;;;;;231.20;162.55;;;;;;;24.75;42.36;100134.00;5070066;28;20111;-50
2023/03/23 11:55:56;;;;;;;231.07;161.10;;;;;;;24.80;42.18;100132.25;5060588;28;20032;-49
2023/03/23 11:58:24;;;;;;;233.93;166.07;;;;;;;24.81;42.35;100134.84;5071769;28;20365;-52
2023/03/23 12:00:58;;;;;;;220.15;158.05;;;;;;;24.78;42.79;100134.00;5070497;28;20017;-52
2023/03/23 12:03:35;;;;;;;227.55;155.93;;;;;;;24.79;42.82;100138.38;5071774;28;20102;-48
2023/03/23 12:06:07;;;;;;;224.27;157.00;;;;;;;24.72;42.61;100133.13;5070145;28;20112;-48
2023/03/23 12:09:06;;;;;;;229.95;159.15;;;;;;;24.81;42.34;100142.72;5071758;28;20032;-52
2023/03/23 12:11:58;;;;;;;217.82;152.68;;;;;;;24.81;42.41;100134.84;5066574;28;20394;-51
2023/03/23 12:14:34;;;;;;;219.93;153.02;;;;;;;24.82;42.76;100139.22;5066077;28;20033;-51
2023/03/23 12:17:40;;;;;;;227.98;156.73;;;;;;;24.88;42.79;100152.34;5071497;28;20084;-50
2023/03/23 12:20:26;;;;;;;222.35;154.00;;;;;;;24.96;42.51;100149.69;5069611;28;20504;-49
2023/03/23 12:23:33;;;;;;;223.55;157.07;;;;;;;24.96;42.73;100140.91;5068775;28;20040;-51
2023/03/23 12:26:04;;;;;;;222.40;154.75;;;;;;;24.97;42.58;100143.56;5073667;28;20045;-52
2023/03/23 12:29:00;;;;;;;225.27;154.07;;;;;;;25.01;42.70;100144.41;5075453;28;20831;-50
2023/03/23 12:31:36;;;;;;;229.52;157.20;;;;;;;25.01;42.70;100141.78;5068360;28;20037;-52
2023/03/23 12:34:22;;;;;;;217.90;154.75;;;;;;;25.03;42.57;100137.41;5075030;28;20033;-49
2023/03/23 12:36:54;;;;;;;219.73;150.40;;;;;;;25.06;42.46;100133.88;5055518;28;20501;-49
2023/03/23 12:39:42;;;;;;;211.65;151.10;;;;;;;25.05;42.47;100132.13;5074124;28;20035;-49
2023/03/23 12:42:28;;;;;;;208.13;137.85;;;;;;;25.01;42.28;100129.53;5057283;28;20036;-51
2023/03/23 12:45:02;;;;;;;200.07;135.43;;;;;;;24.93;42.36;100123.44;5067583;28;20071;-49
2023/03/23 12:47:36;;;;;;;210.15;140.35;;;;;;;24.98;42.21;100116.44;5072972;28;20108;-47
2023/03/23 12:50:36;;;;;;;207.70;138.75;;;;;;;24.96;42.30;100098.94;5074690;28;20032;-50
2023/03/23 12:53:12;;;;;;;191.77;133.50;;;;;;;24.97;42.24;100108.56;5074272;28;20050;-49
2023/03/23 12:55:49;;;;;;;191.45;130.98;;;;;;;24.99;41.86;100094.53;5074147;28;20127;-49
2023/03/23 12:58:40;;;;;;;185.38;126.00;;;;;;;25.02;41.90;100091.06;5074253;28;20079;-51
2023/03/23 13:01:13;;;;;;;190.63;130.45;;;;;;;24.93;41.98;100089.34;5070769;28;20028;-47
2023/03/23 13:03:51;;;;;;;187.75;128.35;;;;;;;24.95;41.94;100077.09;5073493;28;20358;-51
2023/03/23 13:06:18;;;;;;;180.93;125.85;;;;;;;25.00;41.65;100075.28;5073169;28;20020;-52
2023/03/23 13:08:53;;;;;;;184.80;123.90;;;;;;;24.98;41.89;100048.22;5072839;28;20554;-47
2023/03/23 13:11:26;;;;;;;186.20;126.43;;;;;;;24.92;42.05;100044.72;5074487;28;20064;-50
2023/03/23 13:13:56;;;;;;;189.07;128.00;;;;;;;24.87;42.07;100045.66;5074246;28;20033;-50
2023/03/23 13:16:36;;;;;;;184.40;128.05;;;;;;;24.88;41.89;100044.78;5072333;28;20063;-49
2023/03/23 13:19:12;;;;;;;187.95;127.32;;;;;;;24.87;41.97;100022.03;5070739;28;20024;-47
2023/03/23 13:21:47;;;;;;;192.52;130.55;;;;;;;24.82;41.98;100001.97;5073978;28;20374;-47
2023/03/23 13:24:19;;;;;;;189.30;129.52;;;;;;;24.86;42.19;100006.28;5072975;28;20060;-50
2023/03/23 13:26:49;;;;;;;182.25;129.05;;;;;;;24.89;42.05;99995.78;5073923;28;20028;-50
2023/03/23 13:29:24;;;;;;;182.65;126.93;;;;;;;24.85;42.19;99992.31;5072380;28;20025;-50
2023/03/23 13:31:52;;;;;;;;;;;;;;;24.93;42.04;99980.88;5074199;28;20067;-52
2023/03/23 13:34:24;;;;;;;201.35;134.68;;;;;;;24.82;42.21;99978.38;5073945;28;19912;-49
2023/03/23 13:37:04;;;;;;;184.63;123.72;;;;;;;24.85;42.09;99965.19;5071991;28;20035;-49
2023/03/23 13:39:35;;;;;;;180.52;122.95;;;;;;;24.91;42.16;99959.03;5073876;28;20024;-49
2023/03/23 13:42:05;;;;;;;181.45;124.57;;;;;;;24.72;42.11;99928.56;5070353;28;20493;-47
2023/03/23 13:44:52;;;;;;;182.85;127.35;;;;;;;24.92;42.23;99951.19;5074264;28;20075;-48
2023/03/23 13:47:23;;;;;;;195.48;126.63;;;;;;;24.91;42.00;99936.31;5071787;28;20032;-48
2023/03/23 13:50:02;;;;;;;182.95;124.07;;;;;;;24.93;42.25;99931.94;5073236;28;20028;-50
2023/03/23 13:52:47;;;;;;;185.82;126.30;;;;;;;24.94;42.41;99919.66;5073814;28;20033;-48
2023/03/23 13:55:44;;;;;;;177.32;119.82;;;;;;;24.98;42.02;99927.53;5073385;28;20064;-48
2023/03/23 13:58:21;;;;;;;169.70;118.88;;;;;;;25.01;41.94;99916.13;5069332;28;20043;-50
2023/03/23 14:01:01;;;;;;;179.60;119.38;;;;;;;25.07;41.68;99907.34;5069368;28;20025;-51
2023/03/23 14:03:36;;;;;;;174.18;118.43;;;;;;;25.04;41.98;99897.75;5073290;28;20082;-48
2023/03/23 14:06:07;;;;;;;164.43;112.60;;;;;;;25.14;41.70;99901.16;5073369;28;20028;-48
2023/03/23 14:08:36;;;;;;;168.45;114.43;;;;;;;25.14;41.62;99903.78;5073414;28;20037;-48
2023/03/23 14:11:13;;;;;;;167.30;114.55;;;;;;;25.14;41.70;99906.41;5073390;28;20025;-50
2023/03/23 14:13:45;;;;;;;164.27;112.35;;;;;;;25.17;41.80;99915.13;5070636;28;20041;-49
2023/03/23 14:16:26;;;;;;;153.88;105.43;;;;;;;25.20;41.65;99923.84;5071743;28;20088;-51
2023/03/23 14:18:58;;;;;;;154.75;104.78;;;;;;;25.22;41.59;99938.69;5070192;28;20054;-50
2023/03/23 14:21:39;;;;;;;141.60;96.63;;;;;;;25.23;41.24;99944.84;5071923;28;20428;-50
2023/03/23 14:24:26;;;;;;;138.52;92.13;;;;;;;25.22;41.14;99922.94;5072485;28;20078;-50
2023/03/23 14:27:09;;;;;;;125.28;85.35;;;;;;;25.17;40.89;99916.84;5068858;28;20020;-48
2023/03/23 14:29:37;;;;;;;119.82;81.70;;;;;;;25.11;41.32;99904.66;5071228;28;20022;-51
2023/03/23 14:32:11;;;;;;;129.68;82.68;;;;;;;25.06;40.94;99885.47;5071332;28;20052;-50
2023/03/23 14:34:38;;;;;;;117.75;81.30;;;;;;;25.24;40.64;99889.69;5071671;28;20030;-52
2023/03/23 14:37:06;;;;;;;127.70;82.20;;;;;;;25.30;40.72;99876.50;5071088;28;20107;-49
2023/03/23 14:39:36;;;;;;;127.60;85.40;;;;;;;25.33;40.68;99879.09;5070646;28;20024;-48
2023/03/23 14:42:34;;;;;;;128.98;87.57;;;;;;;25.31;40.85;99870.38;5069801;28;20032;-51
2023/03/23 14:45:04;;;;;;;126.68;86.38;;;;;;;25.32;40.84;99874.72;5068010;28;20037;-49
2023/03/23 14:47:35;;;;;;;132.77;90.97;;;;;;;25.29;41.31;99861.66;5071559;28;20432;-52
2023/03/23 14:50:06;;;;;;;130.18;88.18;;;;;;;25.26;41.43;99855.53;5072040;28;20063;-49
2023/03/23 14:52:36;;;;;;;128.40;86.30;;;;;;;25.26;41.28;99859.03;5069945;28;20461;-52
2023/03/23 14:55:17;;;;;;;132.05;89.88;;;;;;;25.28;41.07;99846.78;5071674;28;20025;-52
2023/03/23 14:57:45;;;;;;;132.07;86.85;;;;;;;25.42;41.36;99851.91;5071306;28;20094;-49
2023/03/23 15:00:16;;;;;;;138.65;90.80;;;;;;;25.34;41.36;99844.06;5071950;28;20070;-49
2023/03/23 15:02:47;;;;;;;123.82;85.72;;;;;;;25.31;41.15;99833.63;5071534;28;20036;-47
2023/03/23 15:05:19;;;;;;;128.80;86.97;;;;;;;25.33;40.96;99816.06;5072085;28;20020;-49
2023/03/23 15:07:50;;;;;;;124.15;83.93;;;;;;;25.41;40.97;99820.38;5070707;28;20025;-50
2023/03/23 15:10:21;;;;;;;120.97;82.28;;;;;;;25.40;40.85;99810.78;5072541;28;20047;-51
2023/03/23 15:12:50;;;;;;;128.68;88.18;;;;;;;25.47;40.93;99804.59;5070421;28;20029;-50
2023/03/23 15:15:25;;;;;;;123.10;80.32;;;;;;;25.38;41.09;99795.06;5072092;28;20450;-49
2023/03/23 15:17:51;;;;;;;;;;;;;;;25.52;40.46;99791.41;5072385;28;20481;-49
2023/03/23 15:20:23;;;;;;;116.60;81.18;;;;;;;25.51;40.55;99785.28;5072130;28;20377;-50
2023/03/23 15:22:52;;;;;;;119.57;81.88;;;;;;;25.53;40.69;99780.88;5072097;28;20020;-49
2023/03/23 15:25:22;;;;;;;120.80;82.53;;;;;;;25.54;40.63;99766.88;5072234;28;20059;-54
2023/03/23 15:27:53;;;;;;;122.55;78.90;;;;;;;25.55;40.54;99765.13;5071831;28;20025;-49
2023/03/23 15:30:25;;;;;;;115.80;77.75;;;;;;;25.66;40.51;99764.97;5072287;28;20020;-50
2023/03/23 15:32:55;;;;;;;116.22;77.70;;;;;;;25.60;40.47;99756.31;5071024;28;20476;-51
2023/03/23 15:35:26;;;;;;;113.28;75.38;;;;;;;25.60;40.57;99753.69;5071994;28;20036;-49
2023/03/23 15:37:58;;;;;;;111.65;78.35;;;;;;;25.59;40.46;99765.06;5072177;28;20124;-49
2023/03/23 15:40:27;;;;;;;121.43;77.25;;;;;;;25.49;40.65;99747.66;5070594;28;20021;-49
2023/03/23 15:43:17;;;;;;;116.03;79.45;;;;;;;25.60;40.25;99748.41;5071700;28;20094;-52
2023/03/23 15:45:55;;;;;;;120.80;80.93;;;;;;;25.62;40.34;99748.38;5072618;28;20047;-52
2023/03/23 15:48:24;;;;;;;116.82;79.28;;;;;;;25.61;40.18;99747.53;5072596;28;20036;-49
2023/03/23 15:50:52;;;;;;;114.28;77.28;;;;;;;25.57;40.35;99737.06;5072483;28;20044;-50
2023/03/23 15:53:20;;;;;;;112.68;76.40;;;;;;;25.56;40.20;99736.22;5071724;28;20036;-49
2023/03/23 15:55:48;;;;;;;120.63;79.47;;;;;;;25.49;40.43;99726.66;5076498;28;20114;-49
2023/03/23 15:58:15;;;;;;;112.70;76.47;;;;;;;25.37;40.54;99713.66;5076563;28;20033;-49
2023/03/23 16:00:44;;;;;;;112.20;74.00;;;;;;;25.45;40.51;99715.34;5074762;28;20120;-48
2023/03/23 16:03:17;;;;;;;107.00;72.53;;;;;;;25.49;40.26;99716.16;5076498;28;20469;-49
2023/03/23 16:05:44;;;;;;;104.30;70.82;;;;;;;25.40;40.33;99705.75;5074924;28;20062;-49
2023/03/23 16:08:12;;;;;;;119.13;76.07;;;;;;;25.48;40.39;99690.81;5076438;28;20428;-53
2023/03/23 16:10:39;;;;;;;113.60;75.32;;;;;;;25.51;40.34;99693.38;5075964;28;20032;-48
2023/03/23 16:13:07;;;;;;;110.55;73.97;;;;;;;25.44;40.45;99673.38;5076528;28;20032;-48
2023/03/23 16:15:36;;;;;;;107.10;72.40;;;;;;;25.48;40.20;99686.44;5075366;28;20028;-47
2023/03/23 16:18:05;;;;;;;115.95;78.60;;;;;;;25.42;40.27;99680.41;5075963;28;20024;-48
2023/03/23 16:20:33;;;;;;;105.60;74.55;;;;;;;25.38;40.82;99684.78;5075633;28;20044;-49
2023/03/23 16:23:02;;;;;;;108.57;73.10;;;;;;;25.37;40.48;99667.31;5075115;28;20016;-48
2023/03/23 16:25:30;;;;;;;111.60;74.45;;;;;;;25.46;40.07;99654.06;5076215;28;20029;-48
2023/03/23 16:27:58;;;;;;;115.78;73.43;;;;;;;25.52;40.02;99663.59;5076121;28;20096;-48
2023/03/23 16:30:28;;;;;;;101.93;65.85;;;;;;;25.57;39.81;99672.31;5075492;28;20051;-48
2023/03/23 16:32:55;;;;;;;99.05;65.30;;;;;;;25.46;39.77;99655.84;5074651;28;20047;-48
2023/03/23 16:35:24;;;;;;;101.70;66.55;;;;;;;25.47;40.09;99670.72;5075713;28;20059;-48
2023/03/23 16:37:54;;;;;;;103.07;66.05;;;;;;;25.43;39.91;99669.00;5075935;28;20113;-49
2023/03/23 16:40:22;;;;;;;99.63;65.40;;;;;;;25.47;40.00;99640.06;5057496;28;20026;-48
2023/03/23 16:42:50;;;;;;;107.53;66.88;;;;;;;25.43;39.90;99659.34;5075709;28;20111;-47
2023/03/23 16:45:19;;;;;;;103.78;68.82;;;;;;;25.41;40.12;99657.63;5076094;28;20028;-46
2023/03/23 16:47:47;;;;;;;101.70;65.93;;;;;;;25.41;40.06;99660.25;5076342;28;20016;-46
2023/03/23 16:50:16;;;;;;;94.22;65.10;;;;;;;25.44;40.15;99650.59;5074918;28;20511;-49
2023/03/23 16:52:46;;;;;;;102.65;67.30;;;;;;;25.42;40.07;99641.88;5073954;28;20032;-49
2023/03/23 16:55:16;;;;;;;101.28;67.50;;;;;;;25.38;40.03;99658.53;5074756;28;20027;-46
2023/03/23 16:57:43;;;;;;;101.13;65.22;;;;;;;25.40;40.26;99643.59;5074742;28;20032;-49
2023/03/23 17:00:15;;;;;;;102.03;66.97;;;;;;;25.40;40.13;99645.38;5074613;28;20067;-48
2023/03/23 17:02:43;;;;;;;99.80;64.88;;;;;;;25.46;39.76;99661.09;5074476;28;20025;-47
2023/03/23 17:05:11;;;;;;;96.45;64.30;;;;;;;25.28;40.27;99643.78;5073055;28;20381;-50
2023/03/23 17:07:39;;;;;;;97.63;65.65;;;;;;;25.33;40.04;99642.81;5074882;28;20032;-52
2023/03/23 17:29:18;;;;;;;110.60;76.40;;;;;;;22.47;47.44;99658.84;5111293;27;20365;-49
2023/03/23 17:31:45;;;;;;;114.03;74.70;;;;;;;23.32;45.37;99649.91;5109088;28;20035;-54
2023/03/23 17:34:13;;;;;;;109.75;72.03;;;;;;;24.05;43.23;99649.44;5109773;28;20124;-54
2023/03/23 17:36:41;;;;;;;106.93;74.32;;;;;;;24.40;42.34;99653.50;5110042;28;20035;-55
2023/03/23 17:39:08;;;;;;;113.50;77.32;;;;;;;24.76;41.77;99666.28;5109947;28;20028;-48
2023/03/23 17:41:36;;;;;;;109.88;72.75;;;;;;;25.01;41.04;99667.72;5107454;28;20042;-48
2023/03/23 17:44:03;;;;;;;106.95;71.80;;;;;;;25.15;40.78;99664.09;5104799;28;20031;-49
2023/03/23 17:46:30;;;;;;;115.57;73.97;;;;;;;25.21;40.78;99674.50;5105857;28;20028;-52
2023/03/23 17:48:59;;;;;;;102.45;70.38;;;;;;;25.17;40.58;99722.66;5108049;28;20098;-50
2023/03/23 17:51:26;;;;;;;102.57;67.53;;;;;;;25.28;40.49;99765.41;5104971;28;20066;-47
2023/03/23 17:53:53;;;;;;;99.07;68.43;;;;;;;25.30;40.19;99757.50;5108948;28;20035;-48
2023/03/23 17:56:21;;;;;;;100.50;67.55;;;;;;;25.32;40.35;99763.59;5109638;28;20031;-47
2023/03/23 17:58:48;;;;;;;95.07;64.15;;;;;;;25.33;40.41;99778.47;5108481;28;20031;-47
2023/03/23 18:01:15;;;;;;;98.53;67.38;;;;;;;25.32;40.31;99777.59;5109161;28;20093;-47
2023/03/23 18:03:42;;;;;;;98.15;67.60;;;;;;;25.33;40.29;99767.97;5109126;28;20027;-48
2023/03/23 18:06:09;;;;;;;100.15;70.32;;;;;;;25.33;40.09;99786.34;5109417;28;20028;-47
2023/03/23 18:08:37;;;;;;;112.55;72.30;;;;;;;25.39;40.13;99781.03;5109513;28;20039;-48
2023/03/23 18:11:05;;;;;;;111.85;75.53;;;;;;;25.40;40.33;99776.66;5108648;28;20066;-47
2023/03/23 18:13:34;;;;;;;116.22;79.07;;;;;;;25.46;40.62;99782.72;5108959;28;20048;-47
2023/03/23 18:16:03;;;;;;;119.40;79.43;;;;;;;25.37;40.50;99781.94;5109021;28;20057;-47
2023/03/23 18:18:32;;;;;;;124.82;87.63;;;;;;;25.43;40.49;99801.13;5108879;28;20527;-48
2023/03/23 18:21:04;;;;;;;118.30;84.57;;;;;;;25.43;40.63;99785.38;5109785;28;20205;-47
2023/03/23 18:23:34;;;;;;;118.22;83.45;;;;;;;25.52;40.43;99768.66;5109092;28;20038;-48
2023/03/23 18:26:04;;;;;;;129.00;89.50;;;;;;;25.50;40.76;99780.06;5109682;28;20050;-47
2023/03/23 18:28:32;;;;;;;131.48;92.38;;;;;;;25.51;40.71;99774.78;5109282;28;20044;-47
2023/03/23 18:31:11;;;;;;;133.30;92.30;;;;;;;25.48;40.93;99785.34;5109874;28;20054;-48
2023/03/23 18:33:41;;;;;;;129.10;92.22;;;;;;;25.48;40.84;99793.22;5107851;28;20486;-47
2023/03/23 18:36:10;;;;;;;135.50;94.97;;;;;;;25.56;40.80;99780.00;5109541;28;20028;-46
2023/03/23 18:38:37;;;;;;;136.93;95.20;;;;;;;25.53;40.84;99796.63;5107335;28;20315;-49
2023/03/23 18:41:07;;;;;;;144.05;99.38;;;;;;;25.48;41.08;99803.72;5095841;28;20028;-48
2023/03/23 18:43:35;;;;;;;149.93;100.70;;;;;;;25.56;40.88;99807.13;5095896;28;20511;-47
2023/03/23 18:46:03;;;;;;;148.63;101.85;;;;;;;25.52;41.13;99810.66;5093938;28;20023;-47
2023/03/23 18:48:31;;;;;;;148.70;101.78;;;;;;;25.59;41.23;99811.44;5094827;28;20035;-49
2023/03/23 18:51:00;;;;;;;153.65;104.40;;;;;;;25.60;41.03;99824.59;5075939;28;20048;-48
2023/03/23 18:53:29;;;;;;;157.48;109.43;;;;;;;25.61;41.12;99823.69;5075744;28;20021;-47
2023/03/23 18:56:11;;;;;;;170.88;115.40;;;;;;;25.59;41.51;99840.34;5074900;28;20025;-47
2023/03/23 18:58:40;;;;;;;169.40;113.97;;;;;;;25.58;41.58;99844.72;5075395;28;20033;-48
2023/03/23 19:01:12;;;;;;;172.95;121.03;;;;;;;25.64;41.44;99841.16;5074943;28;20103;-47
2023/03/23 19:03:41;;;;;;;187.30;123.90;;;;;;;25.68;41.68;99840.25;5075333;28;20056;-47
2023/03/23 19:06:21;;;;;;;194.13;128.25;;;;;;;25.72;41.55;99843.69;5074705;28;20536;-48
2023/03/23 19:08:50;;;;;;;187.13;128.85;;;;;;;25.73;41.42;99854.16;5075057;28;20078;-47
2023/03/23 19:11:18;;;;;;;188.57;127.72;;;;;;;25.81;41.44;99863.72;5075106;28;20366;-47
2023/03/23 19:13:47;;;;;;;209.13;138.32;;;;;;;25.81;41.65;99861.09;5074962;28;20067;-49
2023/03/23 19:16:14;;;;;;;217.15;144.63;;;;;;;25.81;41.73;99863.72;5074574;28;20037;-47
2023/03/23 19:18:41;;;;;;;219.40;145.30;;;;;;;25.83;41.93;99865.44;5075198;28;20107;-47
2023/03/23 19:21:10;;;;;;;220.85;150.70;;;;;;;25.90;41.95;99871.47;5075010;28;20078;-47